createdAt,value
2018-01-05T00:00:34.475Z,0.00
2018-01-05T00:01:34.461Z,0.00
2018-01-05T00:02:34.440Z,0.00
2018-01-05T00:03:34.433Z,0.00
2018-01-05T00:04:34.411Z,0.00
2018-01-05T00:05:34.399Z,0.00
2018-01-05T00:06:34.388Z,0.00
2018-01-05T00:07:34.375Z,0.00
2018-01-05T00:08:34.363Z,0.00
2018-01-05T00:09:34.351Z,0.00
2018-01-05T00:10:34.323Z,0.00
2018-01-05T00:11:34.316Z,0.00
2018-01-05T00:12:34.300Z,0.00
2018-01-05T00:13:34.286Z,0.00
2018-01-05T00:14:34.274Z,0.00
2018-01-05T00:15:34.262Z,0.00
2018-01-05T00:16:34.244Z,0.00
2018-01-05T00:17:34.231Z,0.00
2018-01-05T00:18:34.216Z,0.00
2018-01-05T00:19:34.197Z,0.00
2018-01-05T00:20:34.186Z,0.00
2018-01-05T00:21:34.168Z,0.00
2018-01-05T00:22:34.158Z,0.00
2018-01-05T00:23:34.145Z,0.00
2018-01-05T00:24:34.129Z,0.00
2018-01-05T00:25:34.116Z,0.00
2018-01-05T00:26:34.101Z,0.00
2018-01-05T00:27:34.090Z,0.00
2018-01-05T00:28:34.076Z,0.00
2018-01-05T00:29:34.064Z,0.00
2018-01-05T00:30:34.043Z,0.00
2018-01-05T00:31:34.032Z,0.00
2018-01-05T00:32:34.014Z,0.00
2018-01-05T00:33:34.004Z,0.00
2018-01-05T00:34:33.985Z,0.00
2018-01-05T00:35:33.973Z,0.00
2018-01-05T00:36:33.954Z,0.00
2018-01-05T00:37:33.942Z,0.00
2018-01-05T00:38:33.928Z,0.00
2018-01-05T00:39:33.920Z,0.00
2018-01-05T00:40:33.903Z,0.00
2018-01-05T00:41:33.889Z,0.00
2018-01-05T00:42:33.870Z,0.00
2018-01-05T00:43:33.854Z,0.00
2018-01-05T00:44:33.843Z,0.00
2018-01-05T00:45:33.832Z,0.00
2018-01-05T00:46:33.814Z,0.00
2018-01-05T00:47:33.799Z,0.00
2018-01-05T00:48:33.784Z,0.00
2018-01-05T00:49:33.768Z,0.00
2018-01-05T00:50:33.759Z,0.00
2018-01-05T00:51:33.744Z,0.00
2018-01-05T00:52:33.732Z,0.00
2018-01-05T00:53:33.716Z,0.00
2018-01-05T00:54:33.701Z,0.00
2018-01-05T00:55:33.684Z,0.00
2018-01-05T00:56:33.678Z,0.00
2018-01-05T00:57:33.656Z,0.00
2018-01-05T00:58:33.642Z,0.00
2018-01-05T00:59:33.631Z,0.00
2018-01-05T01:00:33.614Z,0.00
2018-01-05T01:01:33.599Z,0.00
2018-01-05T01:02:33.585Z,0.00
2018-01-05T01:03:33.570Z,0.00
2018-01-05T01:04:33.556Z,0.00
2018-01-05T01:05:33.533Z,0.00
2018-01-05T01:06:33.528Z,0.00
2018-01-05T01:07:33.511Z,0.00
2018-01-05T01:08:33.501Z,0.00
2018-01-05T01:09:33.485Z,0.00
2018-01-05T01:10:33.474Z,0.00
2018-01-05T01:11:33.456Z,0.00
2018-01-05T01:12:33.443Z,0.00
2018-01-05T01:13:33.432Z,0.00
2018-01-05T01:14:33.413Z,0.00
2018-01-05T01:15:33.399Z,0.00
2018-01-05T01:16:33.390Z,0.00
2018-01-05T01:17:33.370Z,0.00
2018-01-05T01:18:33.358Z,0.00
2018-01-05T01:19:33.342Z,0.00
2018-01-05T01:20:33.330Z,0.00
2018-01-05T01:21:33.314Z,0.00
2018-01-05T01:22:33.300Z,0.00
2018-01-05T01:23:33.278Z,0.00
2018-01-05T01:24:33.272Z,0.00
2018-01-05T01:25:33.254Z,0.00
2018-01-05T01:26:33.236Z,0.00
2018-01-05T01:27:33.227Z,0.00
2018-01-05T01:28:33.215Z,0.00
2018-01-05T01:29:33.200Z,0.00
2018-01-05T01:30:33.188Z,0.00
2018-01-05T01:31:33.167Z,0.00
2018-01-05T01:32:33.158Z,0.00
2018-01-05T01:33:33.144Z,0.00
2018-01-05T01:34:33.129Z,0.00
2018-01-05T01:35:33.115Z,0.00
2018-01-05T01:36:33.101Z,0.00
2018-01-05T01:37:33.092Z,0.00
2018-01-05T01:38:33.069Z,0.00
2018-01-05T01:39:33.058Z,0.00
2018-01-05T01:40:33.046Z,0.00
2018-01-05T01:41:33.027Z,0.00
2018-01-05T01:42:33.013Z,0.00
2018-01-05T01:43:33.002Z,0.00
2018-01-05T01:44:32.990Z,0.00
2018-01-05T01:45:32.968Z,0.00
2018-01-05T01:46:32.955Z,0.00
2018-01-05T01:47:32.944Z,0.00
2018-01-05T01:48:32.931Z,0.00
2018-01-05T01:49:32.915Z,0.00
2018-01-05T01:50:32.902Z,0.00
2018-01-05T01:51:32.884Z,0.00
2018-01-05T01:52:32.881Z,0.00
2018-01-05T01:53:32.862Z,0.00
2018-01-05T01:54:32.845Z,0.00
2018-01-05T01:55:32.831Z,0.00
2018-01-05T01:56:32.813Z,0.00
2018-01-05T01:57:32.800Z,0.00
2018-01-05T01:58:32.786Z,0.00
2018-01-05T01:59:32.771Z,0.00
2018-01-05T02:00:32.757Z,0.00
2018-01-05T02:01:32.741Z,0.00
2018-01-05T02:02:32.731Z,0.00
2018-01-05T02:03:32.715Z,0.00
2018-01-05T02:04:32.704Z,0.00
2018-01-05T02:05:32.690Z,0.00
2018-01-05T02:06:32.672Z,0.00
2018-01-05T02:07:32.663Z,0.00
2018-01-05T02:08:32.649Z,0.00
2018-01-05T02:09:32.632Z,0.00
2018-01-05T02:10:32.616Z,0.00
2018-01-05T02:11:32.600Z,0.00
2018-01-05T02:12:32.586Z,0.00
2018-01-05T02:13:32.569Z,0.00
2018-01-05T02:14:32.556Z,0.00
2018-01-05T02:15:32.539Z,0.00
2018-01-05T02:16:32.532Z,0.00
2018-01-05T02:17:32.515Z,0.00
2018-01-05T02:18:32.500Z,0.00
2018-01-05T02:19:32.488Z,0.00
2018-01-05T02:20:32.473Z,0.00
2018-01-05T02:21:32.462Z,0.00
2018-01-05T02:22:32.443Z,0.00
2018-01-05T02:23:32.431Z,0.00
2018-01-05T02:24:32.414Z,0.00
2018-01-05T02:25:32.403Z,0.00
2018-01-05T02:26:32.387Z,0.00
2018-01-05T02:27:32.374Z,0.00
2018-01-05T02:28:32.360Z,0.00
2018-01-05T02:29:32.343Z,0.00
2018-01-05T02:30:32.335Z,0.00
2018-01-05T02:31:32.322Z,0.00
2018-01-05T02:32:32.306Z,0.00
2018-01-05T02:33:32.301Z,0.00
2018-01-05T02:34:32.274Z,0.00
2018-01-05T02:35:32.261Z,0.00
2018-01-05T02:36:32.247Z,0.00
2018-01-05T02:37:32.227Z,0.00
2018-01-05T02:38:32.214Z,0.00
2018-01-05T02:39:32.206Z,0.00
2018-01-05T02:40:32.185Z,0.00
2018-01-05T02:41:32.181Z,0.00
2018-01-05T02:42:32.161Z,0.00
2018-01-05T02:43:32.147Z,0.00
2018-01-05T02:44:32.128Z,0.00
2018-01-05T02:45:32.120Z,0.00
2018-01-05T02:46:32.103Z,0.00
2018-01-05T02:47:32.089Z,0.00
2018-01-05T02:48:32.075Z,0.00
2018-01-05T02:49:32.060Z,0.00
2018-01-05T02:50:32.046Z,0.00
2018-01-05T02:51:32.033Z,0.00
2018-01-05T02:52:32.016Z,0.00
2018-01-05T02:53:32.008Z,0.00
2018-01-05T02:54:31.993Z,0.00
2018-01-05T02:55:31.974Z,0.00
2018-01-05T02:56:31.963Z,0.00
2018-01-05T02:57:31.948Z,0.00
2018-01-05T02:58:31.929Z,0.00
2018-01-05T02:59:31.917Z,0.00
2018-01-05T03:00:31.900Z,0.00
2018-01-05T03:01:31.889Z,0.00
2018-01-05T03:02:31.872Z,0.00
2018-01-05T03:03:31.861Z,0.00
2018-01-05T03:04:31.852Z,0.00
2018-01-05T03:05:31.830Z,0.00
2018-01-05T03:06:31.822Z,0.00
2018-01-05T03:07:31.802Z,0.00
2018-01-05T03:08:31.790Z,0.00
2018-01-05T03:09:31.777Z,0.00
2018-01-05T03:10:31.759Z,0.00
2018-01-05T03:11:31.748Z,0.00
2018-01-05T03:12:31.728Z,0.00
2018-01-05T03:13:31.716Z,0.00
2018-01-05T03:14:31.696Z,0.00
2018-01-05T03:15:31.685Z,0.00
2018-01-05T03:16:31.671Z,0.00
2018-01-05T03:17:31.664Z,0.00
2018-01-05T03:18:31.648Z,0.00
2018-01-05T03:19:31.626Z,0.00
2018-01-05T03:20:31.621Z,0.00
2018-01-05T03:21:31.599Z,0.00
2018-01-05T03:22:31.584Z,0.00
2018-01-05T03:23:31.571Z,0.00
2018-01-05T03:24:31.566Z,0.00
2018-01-05T03:25:31.543Z,0.00
2018-01-05T03:26:31.528Z,0.00
2018-01-05T03:27:31.510Z,0.00
2018-01-05T03:28:31.498Z,0.00
2018-01-05T03:29:31.487Z,0.00
2018-01-05T03:30:31.476Z,0.00
2018-01-05T03:31:31.463Z,0.00
2018-01-05T03:32:31.441Z,0.00
2018-01-05T03:33:31.430Z,0.00
2018-01-05T03:34:31.413Z,0.00
2018-01-05T03:35:31.402Z,0.00
2018-01-05T03:36:31.385Z,0.00
2018-01-05T03:37:31.373Z,0.00
2018-01-05T03:38:31.356Z,0.00
2018-01-05T03:39:31.345Z,0.00
2018-01-05T03:40:31.329Z,0.00
2018-01-05T03:41:31.314Z,0.00
2018-01-05T03:42:31.305Z,0.00
2018-01-05T03:43:31.288Z,0.00
2018-01-05T03:44:31.271Z,0.00
2018-01-05T03:45:31.258Z,0.00
2018-01-05T03:46:31.247Z,0.00
2018-01-05T03:47:31.229Z,0.00
2018-01-05T03:48:31.214Z,0.00
2018-01-05T03:49:31.202Z,0.00
2018-01-05T03:50:31.191Z,0.00
2018-01-05T03:51:31.172Z,0.00
2018-01-05T03:52:31.159Z,0.00
2018-01-05T03:53:31.147Z,0.00
2018-01-05T03:54:31.132Z,0.00
2018-01-05T03:55:31.114Z,0.00
2018-01-05T03:56:31.097Z,0.00
2018-01-05T03:57:31.087Z,0.00
2018-01-05T03:58:31.073Z,0.00
2018-01-05T03:59:31.061Z,0.00
2018-01-05T04:00:31.043Z,0.00
2018-01-05T04:01:31.030Z,0.00
2018-01-05T04:02:31.017Z,0.00
2018-01-05T04:03:31.002Z,0.00
2018-01-05T04:04:30.988Z,0.00
2018-01-05T04:05:30.970Z,0.00
2018-01-05T04:06:30.961Z,0.00
2018-01-05T04:07:30.943Z,0.00
2018-01-05T04:08:30.932Z,0.00
2018-01-05T04:09:30.919Z,0.00
2018-01-05T04:10:30.904Z,0.00
2018-01-05T04:11:30.888Z,0.00
2018-01-05T04:12:30.876Z,0.00
2018-01-05T04:13:30.859Z,0.00
2018-01-05T04:14:30.842Z,0.00
2018-01-05T04:15:30.828Z,0.00
2018-01-05T04:16:30.817Z,0.00
2018-01-05T04:17:30.805Z,0.00
2018-01-05T04:18:30.788Z,0.00
2018-01-05T04:19:30.774Z,0.00
2018-01-05T04:20:30.755Z,0.00
2018-01-05T04:21:30.743Z,0.00
2018-01-05T04:22:30.730Z,0.00
2018-01-05T04:23:30.718Z,0.00
2018-01-05T04:24:30.699Z,0.00
2018-01-05T04:25:30.715Z,0.00
2018-01-05T04:26:30.677Z,0.00
2018-01-05T04:27:30.659Z,0.00
2018-01-05T04:28:30.646Z,0.00
2018-01-05T04:29:30.630Z,0.00
2018-01-05T04:30:30.624Z,0.00
2018-01-05T04:31:30.603Z,0.00
2018-01-05T04:32:30.593Z,0.00
2018-01-05T04:33:30.576Z,0.00
2018-01-05T04:34:30.560Z,0.00
2018-01-05T04:35:30.546Z,0.00
2018-01-05T04:36:30.531Z,0.00
2018-01-05T04:37:30.520Z,0.00
2018-01-05T04:38:30.504Z,0.00
2018-01-05T04:39:30.489Z,0.00
2018-01-05T04:40:30.477Z,0.00
2018-01-05T04:41:30.462Z,0.00
2018-01-05T04:42:30.447Z,0.00
2018-01-05T04:43:30.424Z,0.00
2018-01-05T04:44:30.420Z,0.00
2018-01-05T04:45:30.405Z,0.00
2018-01-05T04:46:30.387Z,0.00
2018-01-05T04:47:30.373Z,0.00
2018-01-05T04:48:30.358Z,0.00
2018-01-05T04:49:30.343Z,0.00
2018-01-05T04:50:30.335Z,0.00
2018-01-05T04:51:30.318Z,0.00
2018-01-05T04:52:30.305Z,0.00
2018-01-05T04:53:30.292Z,0.00
2018-01-05T04:54:30.277Z,0.00
2018-01-05T04:55:30.262Z,0.00
2018-01-05T04:56:30.248Z,0.00
2018-01-05T04:57:30.235Z,0.00
2018-01-05T04:58:30.216Z,0.00
2018-01-05T04:59:30.209Z,0.00
2018-01-05T05:00:30.189Z,0.00
2018-01-05T05:01:30.179Z,0.00
2018-01-05T05:02:30.161Z,0.00
2018-01-05T05:03:30.140Z,0.00
2018-01-05T05:04:30.133Z,0.00
2018-01-05T05:05:30.119Z,0.00
2018-01-05T05:06:30.109Z,0.00
2018-01-05T05:07:30.090Z,0.00
2018-01-05T05:08:30.077Z,0.00
2018-01-05T05:09:30.066Z,0.00
2018-01-05T05:10:30.047Z,0.00
2018-01-05T05:11:30.035Z,0.00
2018-01-05T05:12:30.023Z,0.00
2018-01-05T05:13:30.004Z,0.00
2018-01-05T05:14:29.990Z,0.00
2018-01-05T05:15:29.975Z,0.00
2018-01-05T05:16:29.963Z,0.00
2018-01-05T05:17:29.948Z,0.00
2018-01-05T05:18:29.934Z,0.00
2018-01-05T05:19:29.920Z,0.00
2018-01-05T05:20:29.906Z,0.00
2018-01-05T05:21:29.892Z,0.00
2018-01-05T05:22:29.879Z,0.00
2018-01-05T05:23:29.866Z,0.00
2018-01-05T05:24:29.850Z,0.00
2018-01-05T05:25:29.839Z,0.00
2018-01-05T05:26:29.826Z,0.00
2018-01-05T05:27:29.807Z,0.00
2018-01-05T05:28:29.792Z,0.00
2018-01-05T05:29:29.779Z,0.00
2018-01-05T05:30:29.766Z,0.00
2018-01-05T05:31:29.754Z,0.00
2018-01-05T05:32:29.734Z,0.00
2018-01-05T05:33:29.723Z,0.00
2018-01-05T05:34:29.710Z,0.00
2018-01-05T05:35:29.692Z,0.00
2018-01-05T05:36:29.679Z,0.00
2018-01-05T05:37:29.658Z,0.00
2018-01-05T05:38:29.646Z,0.00
2018-01-05T05:39:29.632Z,0.00
2018-01-05T05:40:29.623Z,0.00
2018-01-05T05:41:29.606Z,0.00
2018-01-05T05:42:29.594Z,0.00
2018-01-05T05:43:29.578Z,0.00
2018-01-05T05:44:29.561Z,0.00
2018-01-05T05:45:29.549Z,0.00
2018-01-05T05:46:29.533Z,0.00
2018-01-05T05:47:29.521Z,0.00
2018-01-05T05:48:29.506Z,0.00
2018-01-05T05:49:29.492Z,0.00
2018-01-05T05:50:29.481Z,0.00
2018-01-05T05:51:29.464Z,0.00
2018-01-05T05:52:29.448Z,0.00
2018-01-05T05:53:29.437Z,0.00
2018-01-05T05:54:29.422Z,0.00
2018-01-05T05:55:29.403Z,0.00
2018-01-05T05:56:29.388Z,0.00
2018-01-05T05:57:29.376Z,0.00
2018-01-05T05:58:29.363Z,0.00
2018-01-05T05:59:29.348Z,0.00
2018-01-05T06:00:29.334Z,0.00
2018-01-05T06:01:29.318Z,0.00
2018-01-05T06:02:29.304Z,0.00
2018-01-05T06:03:29.290Z,0.00
2018-01-05T06:04:29.277Z,0.00
2018-01-05T06:05:29.258Z,0.00
2018-01-05T06:06:29.246Z,0.00
2018-01-05T06:07:29.232Z,0.00
2018-01-05T06:08:29.220Z,0.00
2018-01-05T06:09:29.205Z,0.00
2018-01-05T06:10:29.191Z,0.00
2018-01-05T06:11:29.175Z,0.00
2018-01-05T06:12:29.165Z,0.00
2018-01-05T06:13:29.154Z,0.00
2018-01-05T06:14:29.134Z,0.00
2018-01-05T06:15:29.119Z,0.00
2018-01-05T06:16:29.113Z,0.00
2018-01-05T06:17:29.091Z,0.00
2018-01-05T06:18:29.075Z,0.00
2018-01-05T06:19:29.072Z,0.00
2018-01-05T06:20:29.052Z,0.00
2018-01-05T06:21:29.033Z,0.00
2018-01-05T06:22:29.021Z,0.00
2018-01-05T06:23:29.007Z,0.00
2018-01-05T06:24:28.987Z,0.00
2018-01-05T06:25:28.974Z,0.00
2018-01-05T06:26:28.964Z,0.00
2018-01-05T06:27:28.946Z,0.00
2018-01-05T06:28:28.937Z,0.00
2018-01-05T06:29:28.917Z,0.00
2018-01-05T06:30:28.906Z,0.00
2018-01-05T06:31:28.889Z,0.00
2018-01-05T06:32:28.874Z,0.00
2018-01-05T06:33:28.863Z,0.00
2018-01-05T06:34:28.846Z,0.00
2018-01-05T06:35:28.830Z,0.00
2018-01-05T06:36:28.815Z,0.00
2018-01-05T06:37:28.807Z,0.00
2018-01-05T06:38:28.796Z,0.00
2018-01-05T06:39:28.772Z,0.00
2018-01-05T06:40:28.756Z,0.00
2018-01-05T06:41:28.743Z,0.00
2018-01-05T06:42:28.733Z,0.00
2018-01-05T06:43:28.726Z,0.00
2018-01-05T06:44:28.703Z,0.00
2018-01-05T06:45:28.686Z,0.00
2018-01-05T06:46:28.674Z,0.00
2018-01-05T06:47:28.661Z,0.00
2018-01-05T06:48:28.643Z,0.00
2018-01-05T06:49:28.630Z,0.00
2018-01-05T06:50:28.617Z,0.00
2018-01-05T06:51:28.597Z,0.00
2018-01-05T06:52:28.586Z,0.00
2018-01-05T06:53:28.570Z,0.00
2018-01-05T06:54:28.559Z,0.00
2018-01-05T06:55:28.545Z,0.00
2018-01-05T06:56:28.528Z,0.00
2018-01-05T06:57:28.516Z,0.00
2018-01-05T06:58:28.501Z,0.00
2018-01-05T06:59:28.520Z,0.00
2018-01-05T07:00:28.470Z,0.00
2018-01-05T07:01:28.455Z,0.00
2018-01-05T07:02:28.442Z,0.00
2018-01-05T07:03:28.424Z,0.00
2018-01-05T07:04:28.411Z,0.00
2018-01-05T07:05:28.398Z,0.00
2018-01-05T07:06:28.385Z,0.00
2018-01-05T07:07:28.369Z,0.00
2018-01-05T07:08:28.358Z,0.00
2018-01-05T07:09:28.342Z,0.00
2018-01-05T07:10:28.329Z,0.00
2018-01-05T07:11:28.311Z,0.00
2018-01-05T07:12:28.296Z,0.00
2018-01-05T07:13:28.287Z,0.00
2018-01-05T07:14:28.272Z,0.00
2018-01-05T07:15:28.252Z,5.63
2018-01-05T07:16:28.237Z,5.63
2018-01-05T07:17:28.219Z,5.63
2018-01-05T07:18:28.215Z,5.63
2018-01-05T07:19:28.196Z,5.63
2018-01-05T07:20:28.176Z,5.63
2018-01-05T07:21:28.165Z,5.63
2018-01-05T07:22:28.638Z,5.63
2018-01-05T07:23:28.137Z,5.63
2018-01-05T07:24:28.127Z,5.63
2018-01-05T07:25:28.107Z,5.63
2018-01-05T07:26:28.096Z,5.63
2018-01-05T07:27:28.080Z,5.63
2018-01-05T07:28:28.065Z,5.63
2018-01-05T07:29:28.050Z,5.63
2018-01-05T07:30:28.035Z,5.63
2018-01-05T07:31:28.027Z,5.63
2018-01-05T07:32:28.008Z,11.25
2018-01-05T07:33:27.992Z,11.25
2018-01-05T07:34:27.986Z,11.25
2018-01-05T07:35:27.977Z,11.25
2018-01-05T07:36:27.951Z,11.25
2018-01-05T07:37:27.935Z,11.25
2018-01-05T07:38:27.923Z,11.25
2018-01-05T07:39:27.960Z,11.25
2018-01-05T07:40:27.895Z,11.25
2018-01-05T07:41:27.877Z,11.25
2018-01-05T07:42:27.895Z,11.25
2018-01-05T07:43:27.850Z,11.25
2018-01-05T07:44:27.837Z,11.25
2018-01-05T07:45:27.815Z,11.25
2018-01-05T07:46:27.806Z,11.25
2018-01-05T07:47:27.796Z,11.25
2018-01-05T07:48:27.773Z,11.25
2018-01-05T07:49:27.768Z,11.25
2018-01-05T07:50:27.753Z,11.25
2018-01-05T07:51:27.733Z,11.25
2018-01-05T07:52:27.721Z,16.88
2018-01-05T07:53:27.709Z,16.88
2018-01-05T07:54:27.698Z,16.88
2018-01-05T07:55:27.675Z,16.88
2018-01-05T07:56:27.664Z,16.88
2018-01-05T07:57:27.650Z,16.88
2018-01-05T07:58:27.650Z,16.88
2018-01-05T07:59:27.625Z,16.88
2018-01-05T08:00:27.609Z,16.88
2018-01-05T08:01:27.594Z,16.88
2018-01-05T08:02:27.582Z,16.88
2018-01-05T08:03:27.570Z,16.88
2018-01-05T08:04:27.551Z,16.88
2018-01-05T08:05:27.539Z,16.88
2018-01-05T08:06:27.526Z,16.88
2018-01-05T08:07:27.512Z,16.88
2018-01-05T08:08:27.495Z,16.88
2018-01-05T08:09:27.475Z,16.88
2018-01-05T08:10:27.466Z,16.88
2018-01-05T08:11:27.451Z,16.88
2018-01-05T08:12:27.435Z,16.88
2018-01-05T08:13:27.422Z,22.50
2018-01-05T08:14:27.411Z,22.50
2018-01-05T08:15:27.392Z,22.50
2018-01-05T08:16:27.382Z,22.50
2018-01-05T08:17:27.364Z,22.50
2018-01-05T08:18:27.350Z,22.50
2018-01-05T08:19:27.340Z,22.50
2018-01-05T08:20:27.323Z,22.50
2018-01-05T08:21:27.310Z,22.50
2018-01-05T08:22:27.300Z,22.50
2018-01-05T08:23:27.276Z,22.50
2018-01-05T08:24:27.269Z,22.50
2018-01-05T08:25:27.249Z,22.50
2018-01-05T08:26:27.239Z,22.50
2018-01-05T08:27:27.227Z,22.50
2018-01-05T08:28:27.209Z,22.50
2018-01-05T08:29:27.194Z,22.50
2018-01-05T08:30:27.184Z,22.50
2018-01-05T08:31:27.162Z,22.50
2018-01-05T08:32:27.149Z,22.50
2018-01-05T08:33:27.138Z,78.75
2018-01-05T08:34:27.119Z,16.88
2018-01-05T08:35:27.109Z,22.50
2018-01-05T08:36:27.099Z,22.50
2018-01-05T08:37:27.076Z,22.50
2018-01-05T08:38:27.061Z,22.50
2018-01-05T08:39:27.052Z,22.50
2018-01-05T08:40:27.038Z,22.50
2018-01-05T08:41:27.028Z,22.50
2018-01-05T08:42:27.014Z,22.50
2018-01-05T08:43:26.992Z,22.50
2018-01-05T08:44:26.983Z,22.50
2018-01-05T08:45:26.972Z,28.13
2018-01-05T08:46:26.957Z,28.13
2018-01-05T08:47:26.941Z,33.75
2018-01-05T08:48:26.928Z,33.75
2018-01-05T08:49:26.914Z,39.38
2018-01-05T08:50:26.905Z,39.38
2018-01-05T08:51:26.892Z,39.38
2018-01-05T08:52:26.874Z,39.38
2018-01-05T08:53:26.860Z,33.75
2018-01-05T08:54:26.847Z,33.75
2018-01-05T08:55:26.836Z,28.13
2018-01-05T08:56:26.819Z,28.13
2018-01-05T08:57:26.808Z,28.13
2018-01-05T08:58:26.794Z,28.13
2018-01-05T08:59:26.779Z,33.75
2018-01-05T09:00:26.767Z,50.63
2018-01-05T09:01:26.753Z,67.50
2018-01-05T09:02:26.742Z,73.13
2018-01-05T09:03:26.722Z,73.13
2018-01-05T09:04:26.712Z,78.75
2018-01-05T09:05:26.699Z,78.75
2018-01-05T09:06:26.688Z,84.38
2018-01-05T09:07:26.673Z,90.00
2018-01-05T09:08:26.660Z,95.63
2018-01-05T09:09:26.646Z,101.25
2018-01-05T09:10:26.634Z,106.88
2018-01-05T09:11:26.619Z,106.88
2018-01-05T09:12:26.605Z,118.13
2018-01-05T09:13:26.591Z,123.75
2018-01-05T09:14:26.579Z,129.38
2018-01-05T09:15:26.567Z,135.00
2018-01-05T09:16:26.552Z,146.25
2018-01-05T09:17:26.544Z,95.63
2018-01-05T09:18:26.523Z,95.63
2018-01-05T09:19:26.514Z,157.50
2018-01-05T09:20:26.505Z,106.88
2018-01-05T09:21:26.489Z,106.88
2018-01-05T09:22:26.476Z,174.38
2018-01-05T09:23:26.462Z,163.13
2018-01-05T09:24:26.445Z,174.38
2018-01-05T09:25:26.440Z,168.75
2018-01-05T09:26:26.426Z,191.25
2018-01-05T09:27:26.414Z,196.88
2018-01-05T09:28:26.399Z,202.50
2018-01-05T09:29:26.385Z,202.50
2018-01-05T09:30:26.375Z,208.13
2018-01-05T09:31:26.397Z,213.75
2018-01-05T09:32:26.354Z,140.63
2018-01-05T09:33:26.340Z,157.50
2018-01-05T09:34:26.329Z,112.50
2018-01-05T09:35:26.317Z,112.50
2018-01-05T09:36:26.305Z,168.75
2018-01-05T09:37:26.295Z,112.50
2018-01-05T09:38:26.294Z,112.50
2018-01-05T09:39:26.264Z,112.50
2018-01-05T09:40:26.254Z,123.75
2018-01-05T09:41:26.245Z,174.38
2018-01-05T09:42:26.234Z,129.38
2018-01-05T09:43:26.224Z,112.50
2018-01-05T09:44:26.210Z,112.50
2018-01-05T09:45:26.199Z,140.63
2018-01-05T09:46:26.192Z,129.38
2018-01-05T09:47:26.178Z,185.63
2018-01-05T09:48:26.165Z,230.63
2018-01-05T09:49:26.164Z,135.00
2018-01-05T09:50:26.141Z,140.63
2018-01-05T09:51:26.123Z,123.75
2018-01-05T09:52:26.116Z,163.13
2018-01-05T09:53:26.106Z,208.13
2018-01-05T09:54:26.104Z,123.75
2018-01-05T09:55:26.088Z,151.88
2018-01-05T09:56:26.072Z,185.63
2018-01-05T09:57:26.063Z,236.25
2018-01-05T09:58:26.045Z,185.63
2018-01-05T09:59:26.038Z,168.75
2018-01-05T10:00:26.027Z,185.63
2018-01-05T10:01:26.016Z,135.00
2018-01-05T10:02:26.008Z,163.13
2018-01-05T10:03:25.992Z,135.00
2018-01-05T10:04:25.981Z,118.13
2018-01-05T10:05:25.969Z,129.38
2018-01-05T10:06:25.962Z,118.13
2018-01-05T10:07:25.947Z,112.50
2018-01-05T10:08:25.937Z,112.50
2018-01-05T10:09:25.935Z,112.50
2018-01-05T10:10:25.920Z,112.50
2018-01-05T10:11:25.903Z,106.88
2018-01-05T10:12:25.893Z,118.13
2018-01-05T10:13:25.882Z,118.13
2018-01-05T10:14:25.874Z,118.13
2018-01-05T10:15:25.859Z,112.50
2018-01-05T10:16:25.849Z,112.50
2018-01-05T10:17:25.841Z,118.13
2018-01-05T10:18:25.827Z,118.13
2018-01-05T10:19:25.810Z,123.75
2018-01-05T10:20:25.800Z,112.50
2018-01-05T10:21:25.793Z,112.50
2018-01-05T10:22:25.781Z,112.50
2018-01-05T10:23:25.771Z,112.50
2018-01-05T10:24:25.754Z,112.50
2018-01-05T10:25:25.746Z,118.13
2018-01-05T10:26:25.736Z,129.38
2018-01-05T10:27:25.730Z,129.38
2018-01-05T10:28:25.716Z,196.88
2018-01-05T10:29:25.708Z,163.13
2018-01-05T10:30:25.691Z,236.25
2018-01-05T10:31:25.679Z,196.88
2018-01-05T10:32:25.673Z,191.25
2018-01-05T10:33:25.659Z,196.88
2018-01-05T10:34:25.646Z,157.50
2018-01-05T10:35:25.633Z,174.38
2018-01-05T10:36:25.625Z,168.75
2018-01-05T10:37:25.613Z,309.38
2018-01-05T10:38:25.607Z,281.25
2018-01-05T10:39:25.596Z,247.50
2018-01-05T10:40:25.581Z,163.13
2018-01-05T10:41:25.565Z,135.00
2018-01-05T10:42:25.561Z,168.75
2018-01-05T10:43:25.549Z,286.88
2018-01-05T10:44:25.538Z,292.50
2018-01-05T10:45:25.530Z,303.75
2018-01-05T10:46:25.517Z,303.75
2018-01-05T10:47:25.514Z,315.00
2018-01-05T10:48:25.504Z,309.38
2018-01-05T10:49:25.490Z,303.75
2018-01-05T10:50:25.481Z,286.88
2018-01-05T10:51:25.459Z,292.50
2018-01-05T10:52:25.456Z,286.88
2018-01-05T10:53:25.440Z,292.50
2018-01-05T10:54:25.440Z,298.13
2018-01-05T10:55:25.428Z,303.75
2018-01-05T10:56:25.414Z,315.00
2018-01-05T10:57:25.403Z,315.00
2018-01-05T10:58:25.397Z,303.75
2018-01-05T10:59:25.383Z,309.38
2018-01-05T11:00:25.373Z,286.88
2018-01-05T11:01:25.368Z,315.00
2018-01-05T11:02:25.358Z,309.38
2018-01-05T11:03:25.347Z,315.00
2018-01-05T11:04:25.344Z,315.00
2018-01-05T11:05:25.326Z,315.00
2018-01-05T11:06:25.323Z,303.75
2018-01-05T11:07:25.316Z,303.75
2018-01-05T11:08:25.307Z,303.75
2018-01-05T11:09:25.297Z,315.00
2018-01-05T11:10:25.291Z,309.38
2018-01-05T11:11:25.275Z,303.75
2018-01-05T11:12:25.270Z,303.75
2018-01-05T11:13:25.258Z,303.75
2018-01-05T11:14:25.252Z,303.75
2018-01-05T11:15:25.242Z,303.75
2018-01-05T11:16:25.235Z,292.50
2018-01-05T11:17:25.229Z,298.13
2018-01-05T11:18:25.216Z,298.13
2018-01-05T11:19:25.208Z,292.50
2018-01-05T11:20:25.201Z,146.25
2018-01-05T11:21:25.193Z,163.13
2018-01-05T11:22:25.186Z,292.50
2018-01-05T11:23:25.176Z,298.13
2018-01-05T11:24:25.171Z,309.38
2018-01-05T11:25:25.161Z,309.38
2018-01-05T11:26:25.155Z,309.38
2018-01-05T11:27:25.148Z,309.38
2018-01-05T11:28:25.138Z,309.38
2018-01-05T11:29:25.132Z,309.38
2018-01-05T11:30:25.126Z,309.38
2018-01-05T11:31:25.116Z,298.13
2018-01-05T11:32:25.108Z,303.75
2018-01-05T11:33:25.099Z,298.13
2018-01-05T11:34:25.091Z,292.50
2018-01-05T11:35:25.086Z,298.13
2018-01-05T11:36:25.079Z,292.50
2018-01-05T11:37:25.071Z,292.50
2018-01-05T11:38:25.062Z,298.13
2018-01-05T11:39:25.060Z,286.88
2018-01-05T11:40:25.049Z,298.13
2018-01-05T11:41:25.040Z,292.50
2018-01-05T11:42:25.032Z,286.88
2018-01-05T11:43:25.027Z,281.25
2018-01-05T11:44:25.021Z,298.13
2018-01-05T11:45:25.015Z,292.50
2018-01-05T11:46:25.005Z,286.88
2018-01-05T11:47:24.995Z,286.88
2018-01-05T11:48:24.994Z,286.88
2018-01-05T11:49:24.988Z,286.88
2018-01-05T11:50:24.979Z,298.13
2018-01-05T11:51:24.975Z,303.75
2018-01-05T11:52:24.963Z,298.13
2018-01-05T11:53:24.954Z,303.75
2018-01-05T11:54:24.952Z,309.38
2018-01-05T11:55:24.946Z,309.38
2018-01-05T11:56:24.937Z,315.00
2018-01-05T11:57:24.932Z,281.25
2018-01-05T11:58:24.927Z,303.75
2018-01-05T11:59:24.920Z,303.75
2018-01-05T12:00:24.911Z,303.75
2018-01-05T12:01:24.905Z,264.38
2018-01-05T12:02:24.897Z,292.50
2018-01-05T12:03:24.891Z,292.50
2018-01-05T12:04:24.889Z,275.63
2018-01-05T12:05:24.874Z,286.88
2018-01-05T12:06:24.880Z,270.00
2018-01-05T12:07:24.872Z,292.50
2018-01-05T12:08:24.859Z,292.50
2018-01-05T12:09:24.848Z,292.50
2018-01-05T12:10:24.851Z,292.50
2018-01-05T12:11:24.837Z,270.00
2018-01-05T12:12:24.832Z,196.88
2018-01-05T12:13:24.829Z,146.25
2018-01-05T12:14:24.821Z,135.00
2018-01-05T12:15:24.813Z,140.63
2018-01-05T12:16:24.806Z,157.50
2018-01-05T12:17:24.801Z,157.50
2018-01-05T12:18:24.790Z,168.75
2018-01-05T12:19:24.789Z,208.13
2018-01-05T12:20:24.771Z,180.00
2018-01-05T12:21:24.772Z,213.75
2018-01-05T12:22:24.766Z,180.00
2018-01-05T12:23:24.748Z,196.88
2018-01-05T12:24:24.757Z,213.75
2018-01-05T12:25:24.741Z,253.13
2018-01-05T12:26:24.734Z,225.00
2018-01-05T12:27:24.727Z,163.13
2018-01-05T12:28:24.723Z,168.75
2018-01-05T12:29:24.714Z,185.63
2018-01-05T12:30:24.701Z,146.25
2018-01-05T12:31:24.695Z,151.88
2018-01-05T12:32:24.690Z,135.00
2018-01-05T12:33:24.679Z,129.38
2018-01-05T12:34:24.689Z,129.38
2018-01-05T12:35:24.666Z,123.75
2018-01-05T12:36:24.661Z,118.13
2018-01-05T12:37:24.649Z,112.50
2018-01-05T12:38:24.646Z,112.50
2018-01-05T12:39:24.639Z,112.50
2018-01-05T12:40:24.627Z,118.13
2018-01-05T12:41:24.619Z,123.75
2018-01-05T12:42:24.611Z,129.38
2018-01-05T12:43:24.605Z,123.75
2018-01-05T12:44:24.591Z,123.75
2018-01-05T12:45:24.584Z,129.38
2018-01-05T12:46:24.581Z,135.00
2018-01-05T12:47:24.564Z,140.63
2018-01-05T12:48:24.561Z,140.63
2018-01-05T12:49:24.554Z,140.63
2018-01-05T12:50:24.548Z,135.00
2018-01-05T12:51:24.537Z,140.63
2018-01-05T12:52:24.530Z,135.00
2018-01-05T12:53:24.520Z,135.00
2018-01-05T12:54:24.512Z,129.38
2018-01-05T12:55:24.503Z,129.38
2018-01-05T12:56:24.494Z,129.38
2018-01-05T12:57:24.488Z,135.00
2018-01-05T12:58:24.475Z,135.00
2018-01-05T12:59:24.466Z,135.00